CheckWX is a tool to help pilots better visualize weather data.  It is not intended as a substitute for an official pre-flight weather briefing.

00:25:51 UTC

KRHI METAR
Rhinelander-Oneida County Airport
Rhinelander, Wisconsin, USA
Current

33 mins ago

KRHI 182353Z AUTO 15008KT 10SM CLR 09/04 A2979 RMK AO2 SLP103 T00890039 10133 20089 56008
Observed
Oct-18 @ 23:53 UTC
Wind
  • 150° at 8 KTS
Visibility
10 SM
Flight Rules
VFR
Cloud Levels
  • Clear skies
Temperature
C / 48°F
Dewpoint
C / 39°F
Humidity
71%
Altimeter
29.79" Hg
Pressure
1008.82 hPa
Previous

2 hours ago

KRHI 182253Z AUTO 13012G21KT 10SM CLR 11/03 A2979 RMK AO2 SLP102 T01060033
Observed
Oct-18 @ 22:53 UTC
Wind
  • 130° at 12 KTS
  • Gusting to 21 KTS
Visibility
10 SM
Flight Rules
VFR
Cloud Levels
  • Clear skies
Temperature
11°C / 52°F
Dewpoint
C / 37°F
Humidity
58%
Altimeter
29.79" Hg
Pressure
1008.82 hPa
Previous

3 hours ago

KRHI 182153Z AUTO 15009G21KT 10SM CLR 12/03 A2981 RMK AO2 SLP105 T01220033
Observed
Oct-18 @ 21:53 UTC
Wind
  • 150° at 9 KTS
  • Gusting to 21 KTS
Visibility
10 SM
Flight Rules
VFR
Cloud Levels
  • Clear skies
Temperature
12°C / 54°F
Dewpoint
C / 37°F
Humidity
54%
Altimeter
29.81" Hg
Pressure
1009.52 hPa